KDRO/DRO METAR and TAF weather

Enter ICAO airport designator
Station Type Date Time Source
KDRO METAR 2021/10/24 20:53 UTC NOAA

KDRO 242053Z AUTO 24011G19KT 10SM CLR 17/M02 A3004 RMK AO2 SLP127 T01671017 56013


Station Type Date Time Source
KDRO Decoded METAR 2021/10/24 20:53 UTC NOAA

DURANGO-LA PLATA COUNTY AIRPORT , CO, United States (KDRO) 37-09N 107-46W 2035M
Oct 24, 2021 - 04:53 PM EDT / 2021.10.24 2053 UTC
Wind: from the WSW (240 degrees) at 13 MPH (11 KT) gusting to 22 MPH (19 KT):0
Visibility: 10 mile(s):0
Sky conditions: clear
Temperature: 62.1 F (16.7 C)
Dew Point: 28.9 F (-1.7 C)
Relative Humidity: 28%
Pressure (altimeter): 30.04 in. Hg (1017 hPa)
Pressure tendency: 0.04 inches (1.3 hPa) lower than three hours ago
ob: KDRO 242053Z AUTO 24011G19KT 10SM CLR 17/M02 A3004 RMK AO2 SLP127 T01671017 56013
cycle: 21

Station Type Date Time Source
KDRO TAF 2021/10/24 18:34 UTC NOAA

TAF KDRO 241732Z 2418/2518 22007KT P6SM SCT250
FM250300 04005KT P6SM BKN250
FM250900 05003KT P6SM SKC

Example: see airport list